sensor_id;sensor_type;location;lat;lon;timestamp;P1;durP1;ratioP1;P2;durP2;ratioP2
68168;SDS011;54981;50.206;15.978;2022-11-20T00:01:13;83.43;;;54.58;;
68168;SDS011;54981;50.206;15.978;2022-11-20T00:03:40;76.53;;;53.92;;
68168;SDS011;54981;50.206;15.978;2022-11-20T00:06:07;72.68;;;51.63;;
68168;SDS011;54981;50.206;15.978;2022-11-20T00:08:34;71.05;;;52.03;;
68168;SDS011;54981;50.206;15.978;2022-11-20T00:11:11;70.47;;;50.05;;
68168;SDS011;54981;50.206;15.978;2022-11-20T00:13:38;72.57;;;52.40;;
68168;SDS011;54981;50.206;15.978;2022-11-20T00:16:04;77.20;;;53.80;;
68168;SDS011;54981;50.206;15.978;2022-11-20T00:18:32;78.65;;;53.65;;
68168;SDS011;54981;50.206;15.978;2022-11-20T00:21:05;83.85;;;55.55;;
68168;SDS011;54981;50.206;15.978;2022-11-20T00:23:32;69.60;;;52.10;;
68168;SDS011;54981;50.206;15.978;2022-11-20T00:26:05;81.50;;;52.78;;
68168;SDS011;54981;50.206;15.978;2022-11-20T00:28:32;77.65;;;53.13;;
68168;SDS011;54981;50.206;15.978;2022-11-20T00:31:05;77.20;;;55.45;;
68168;SDS011;54981;50.206;15.978;2022-11-20T00:33:32;71.82;;;51.78;;
68168;SDS011;54981;50.206;15.978;2022-11-20T00:36:07;79.60;;;52.15;;
68168;SDS011;54981;50.206;15.978;2022-11-20T00:38:40;75.90;;;51.60;;
68168;SDS011;54981;50.206;15.978;2022-11-20T00:41:07;68.57;;;47.20;;
68168;SDS011;54981;50.206;15.978;2022-11-20T00:43:34;79.30;;;52.33;;
68168;SDS011;54981;50.206;15.978;2022-11-20T00:48:32;58.92;;;44.67;;
68168;SDS011;54981;50.206;15.978;2022-11-20T00:50:57;58.20;;;41.13;;
68168;SDS011;54981;50.206;15.978;2022-11-20T00:53:24;56.42;;;39.88;;
68168;SDS011;54981;50.206;15.978;2022-11-20T00:55:56;77.20;;;50.33;;
68168;SDS011;54981;50.206;15.978;2022-11-20T00:58:28;60.00;;;44.78;;
68168;SDS011;54981;50.206;15.978;2022-11-20T01:01:09;56.53;;;42.83;;
68168;SDS011;54981;50.206;15.978;2022-11-20T01:03:37;55.67;;;38.67;;
68168;SDS011;54981;50.206;15.978;2022-11-20T01:06:05;56.05;;;42.78;;
68168;SDS011;54981;50.206;15.978;2022-11-20T01:08:33;57.03;;;41.22;;
68168;SDS011;54981;50.206;15.978;2022-11-20T01:11:03;63.60;;;44.15;;
68168;SDS011;54981;50.206;15.978;2022-11-20T01:13:33;60.13;;;42.85;;
68168;SDS011;54981;50.206;15.978;2022-11-20T01:16:06;55.63;;;41.08;;
68168;SDS011;54981;50.206;15.978;2022-11-20T01:18:32;50.90;;;40.85;;
68168;SDS011;54981;50.206;15.978;2022-11-20T01:21:02;54.97;;;38.47;;
68168;SDS011;54981;50.206;15.978;2022-11-20T01:23:32;52.03;;;38.95;;
68168;SDS011;54981;50.206;15.978;2022-11-20T01:26:00;53.97;;;40.40;;
68168;SDS011;54981;50.206;15.978;2022-11-20T01:28:26;50.63;;;37.88;;
68168;SDS011;54981;50.206;15.978;2022-11-20T01:30:51;53.78;;;39.40;;
68168;SDS011;54981;50.206;15.978;2022-11-20T01:33:17;50.10;;;37.30;;
68168;SDS011;54981;50.206;15.978;2022-11-20T01:35:42;51.03;;;41.28;;
68168;SDS011;54981;50.206;15.978;2022-11-20T01:38:07;53.45;;;39.55;;
68168;SDS011;54981;50.206;15.978;2022-11-20T01:40:33;60.42;;;44.22;;
68168;SDS011;54981;50.206;15.978;2022-11-20T01:43:06;53.88;;;39.10;;
68168;SDS011;54981;50.206;15.978;2022-11-20T01:45:58;54.38;;;40.38;;
68168;SDS011;54981;50.206;15.978;2022-11-20T01:48:34;55.03;;;42.33;;
68168;SDS011;54981;50.206;15.978;2022-11-20T01:51:00;52.25;;;40.10;;
68168;SDS011;54981;50.206;15.978;2022-11-20T01:53:28;60.00;;;45.13;;
68168;SDS011;54981;50.206;15.978;2022-11-20T01:55:59;55.58;;;39.90;;
68168;SDS011;54981;50.206;15.978;2022-11-20T01:58:31;55.03;;;41.63;;
68168;SDS011;54981;50.206;15.978;2022-11-20T02:01:00;53.75;;;40.78;;
68168;SDS011;54981;50.206;15.978;2022-11-20T02:03:25;60.35;;;42.08;;
68168;SDS011;54981;50.206;15.978;2022-11-20T02:08:49;48.28;;;38.78;;
68168;SDS011;54981;50.206;15.978;2022-11-20T02:11:15;47.38;;;38.60;;
68168;SDS011;54981;50.206;15.978;2022-11-20T02:13:41;47.28;;;40.15;;
68168;SDS011;54981;50.206;15.978;2022-11-20T02:16:19;50.83;;;39.40;;
68168;SDS011;54981;50.206;15.978;2022-11-20T02:18:48;51.10;;;38.17;;
68168;SDS011;54981;50.206;15.978;2022-11-20T02:26:44;55.50;;;43.95;;
68168;SDS011;54981;50.206;15.978;2022-11-20T02:29:15;51.33;;;39.70;;
68168;SDS011;54981;50.206;15.978;2022-11-20T02:31:44;51.30;;;39.92;;
68168;SDS011;54981;50.206;15.978;2022-11-20T02:34:10;50.03;;;39.25;;
68168;SDS011;54981;50.206;15.978;2022-11-20T02:36:35;51.30;;;41.42;;
68168;SDS011;54981;50.206;15.978;2022-11-20T02:39:04;55.95;;;41.58;;
68168;SDS011;54981;50.206;15.978;2022-11-20T02:41:30;55.63;;;41.88;;
68168;SDS011;54981;50.206;15.978;2022-11-20T02:43:59;54.55;;;42.88;;
68168;SDS011;54981;50.206;15.978;2022-11-20T02:46:24;57.85;;;43.15;;
68168;SDS011;54981;50.206;15.978;2022-11-20T02:48:50;57.80;;;42.75;;
68168;SDS011;54981;50.206;15.978;2022-11-20T02:51:15;52.08;;;39.58;;
68168;SDS011;54981;50.206;15.978;2022-11-20T02:53:40;49.85;;;39.78;;
68168;SDS011;54981;50.206;15.978;2022-11-20T02:56:06;52.55;;;39.75;;
68168;SDS011;54981;50.206;15.978;2022-11-20T02:58:31;51.60;;;42.05;;
68168;SDS011;54981;50.206;15.978;2022-11-20T03:00:57;52.17;;;42.40;;
68168;SDS011;54981;50.206;15.978;2022-11-20T03:03:22;53.28;;;45.17;;
68168;SDS011;54981;50.206;15.978;2022-11-20T03:05:47;55.55;;;45.15;;
68168;SDS011;54981;50.206;15.978;2022-11-20T03:08:13;63.55;;;45.90;;
68168;SDS011;54981;50.206;15.978;2022-11-20T03:10:38;57.20;;;42.53;;
68168;SDS011;54981;50.206;15.978;2022-11-20T03:13:03;56.88;;;42.80;;
68168;SDS011;54981;50.206;15.978;2022-11-20T03:15:29;56.42;;;43.97;;
68168;SDS011;54981;50.206;15.978;2022-11-20T03:17:54;59.03;;;46.63;;
68168;SDS011;54981;50.206;15.978;2022-11-20T03:20:20;67.25;;;45.85;;
68168;SDS011;54981;50.206;15.978;2022-11-20T03:22:46;67.88;;;47.35;;
68168;SDS011;54981;50.206;15.978;2022-11-20T03:25:11;61.92;;;46.70;;
68168;SDS011;54981;50.206;15.978;2022-11-20T03:27:36;64.72;;;47.00;;
68168;SDS011;54981;50.206;15.978;2022-11-20T03:30:02;61.00;;;44.03;;
68168;SDS011;54981;50.206;15.978;2022-11-20T03:32:28;56.45;;;41.00;;
68168;SDS011;54981;50.206;15.978;2022-11-20T03:34:53;57.90;;;43.42;;
68168;SDS011;54981;50.206;15.978;2022-11-20T03:37:18;61.70;;;40.63;;
68168;SDS011;54981;50.206;15.978;2022-11-20T03:39:44;56.55;;;44.10;;
68168;SDS011;54981;50.206;15.978;2022-11-20T03:42:09;60.20;;;44.63;;
68168;SDS011;54981;50.206;15.978;2022-11-20T03:44:53;55.50;;;40.97;;
68168;SDS011;54981;50.206;15.978;2022-11-20T03:47:18;56.05;;;42.47;;
68168;SDS011;54981;50.206;15.978;2022-11-20T03:49:44;60.42;;;42.92;;
68168;SDS011;54981;50.206;15.978;2022-11-20T03:52:09;59.95;;;45.00;;
68168;SDS011;54981;50.206;15.978;2022-11-20T03:54:34;55.03;;;43.50;;
68168;SDS011;54981;50.206;15.978;2022-11-20T03:57:00;56.60;;;42.20;;
68168;SDS011;54981;50.206;15.978;2022-11-20T03:59:25;59.72;;;43.88;;
68168;SDS011;54981;50.206;15.978;2022-11-20T04:01:50;56.85;;;43.60;;
68168;SDS011;54981;50.206;15.978;2022-11-20T04:04:15;58.50;;;42.05;;
68168;SDS011;54981;50.206;15.978;2022-11-20T04:06:41;58.47;;;43.92;;
68168;SDS011;54981;50.206;15.978;2022-11-20T04:09:06;64.05;;;48.17;;
68168;SDS011;54981;50.206;15.978;2022-11-20T04:11:33;56.20;;;40.13;;
68168;SDS011;54981;50.206;15.978;2022-11-20T04:14:02;54.20;;;40.75;;
68168;SDS011;54981;50.206;15.978;2022-11-20T04:16:30;53.33;;;41.28;;
68168;SDS011;54981;50.206;15.978;2022-11-20T04:19:00;53.88;;;40.55;;
68168;SDS011;54981;50.206;15.978;2022-11-20T04:21:27;53.50;;;40.40;;
68168;SDS011;54981;50.206;15.978;2022-11-20T04:23:52;55.00;;;38.83;;
68168;SDS011;54981;50.206;15.978;2022-11-20T04:26:19;48.88;;;39.67;;
68168;SDS011;54981;50.206;15.978;2022-11-20T04:28:45;49.85;;;38.72;;
68168;SDS011;54981;50.206;15.978;2022-11-20T04:31:15;51.47;;;40.28;;
68168;SDS011;54981;50.206;15.978;2022-11-20T04:33:42;50.60;;;38.58;;
68168;SDS011;54981;50.206;15.978;2022-11-20T04:36:09;50.33;;;38.20;;
68168;SDS011;54981;50.206;15.978;2022-11-20T04:38:37;51.40;;;36.95;;
68168;SDS011;54981;50.206;15.978;2022-11-20T04:41:03;46.08;;;37.80;;
68168;SDS011;54981;50.206;15.978;2022-11-20T04:43:31;48.00;;;36.83;;
68168;SDS011;54981;50.206;15.978;2022-11-20T04:45:58;53.15;;;40.80;;
68168;SDS011;54981;50.206;15.978;2022-11-20T04:48:25;60.50;;;40.53;;
68168;SDS011;54981;50.206;15.978;2022-11-20T04:50:51;56.65;;;40.80;;
68168;SDS011;54981;50.206;15.978;2022-11-20T04:53:17;52.00;;;39.72;;
68168;SDS011;54981;50.206;15.978;2022-11-20T04:55:43;50.53;;;37.35;;
68168;SDS011;54981;50.206;15.978;2022-11-20T04:58:09;52.15;;;38.92;;
68168;SDS011;54981;50.206;15.978;2022-11-20T05:00:34;49.15;;;38.65;;
68168;SDS011;54981;50.206;15.978;2022-11-20T05:03:00;57.78;;;45.60;;
68168;SDS011;54981;50.206;15.978;2022-11-20T05:05:26;64.97;;;44.03;;
68168;SDS011;54981;50.206;15.978;2022-11-20T05:07:51;57.95;;;45.10;;
68168;SDS011;54981;50.206;15.978;2022-11-20T05:10:17;67.05;;;48.58;;
68168;SDS011;54981;50.206;15.978;2022-11-20T05:12:42;59.85;;;44.72;;
68168;SDS011;54981;50.206;15.978;2022-11-20T05:15:07;58.30;;;43.50;;
68168;SDS011;54981;50.206;15.978;2022-11-20T05:17:33;55.05;;;40.38;;
68168;SDS011;54981;50.206;15.978;2022-11-20T05:19:58;57.78;;;46.13;;
68168;SDS011;54981;50.206;15.978;2022-11-20T05:22:24;62.60;;;44.50;;
68168;SDS011;54981;50.206;15.978;2022-11-20T05:24:49;55.03;;;43.85;;
68168;SDS011;54981;50.206;15.978;2022-11-20T05:27:14;63.22;;;46.75;;
68168;SDS011;54981;50.206;15.978;2022-11-20T05:29:40;67.18;;;47.50;;
68168;SDS011;54981;50.206;15.978;2022-11-20T05:32:05;58.08;;;43.33;;
68168;SDS011;54981;50.206;15.978;2022-11-20T05:34:33;48.97;;;40.63;;
68168;SDS011;54981;50.206;15.978;2022-11-20T05:36:59;53.92;;;40.88;;
68168;SDS011;54981;50.206;15.978;2022-11-20T05:39:24;53.85;;;43.17;;
68168;SDS011;54981;50.206;15.978;2022-11-20T05:41:50;50.70;;;43.17;;
68168;SDS011;54981;50.206;15.978;2022-11-20T05:44:35;54.78;;;43.40;;
68168;SDS011;54981;50.206;15.978;2022-11-20T05:47:00;53.38;;;38.75;;
68168;SDS011;54981;50.206;15.978;2022-11-20T05:49:25;55.03;;;42.05;;
68168;SDS011;54981;50.206;15.978;2022-11-20T05:51:51;52.58;;;42.55;;
68168;SDS011;54981;50.206;15.978;2022-11-20T05:54:16;52.67;;;41.60;;
68168;SDS011;54981;50.206;15.978;2022-11-20T05:56:42;51.70;;;42.38;;
68168;SDS011;54981;50.206;15.978;2022-11-20T05:59:07;51.72;;;40.95;;
68168;SDS011;54981;50.206;15.978;2022-11-20T06:01:32;54.67;;;42.45;;
68168;SDS011;54981;50.206;15.978;2022-11-20T06:03:58;58.08;;;43.97;;
68168;SDS011;54981;50.206;15.978;2022-11-20T06:06:23;66.40;;;46.40;;
68168;SDS011;54981;50.206;15.978;2022-11-20T06:08:50;59.47;;;44.08;;
68168;SDS011;54981;50.206;15.978;2022-11-20T06:11:16;60.13;;;45.47;;
68168;SDS011;54981;50.206;15.978;2022-11-20T06:13:42;62.38;;;46.28;;
68168;SDS011;54981;50.206;15.978;2022-11-20T06:16:09;54.85;;;40.25;;
68168;SDS011;54981;50.206;15.978;2022-11-20T06:18:35;55.95;;;44.40;;
68168;SDS011;54981;50.206;15.978;2022-11-20T06:21:01;78.85;;;54.28;;
68168;SDS011;54981;50.206;15.978;2022-11-20T06:23:31;64.85;;;49.28;;
68168;SDS011;54981;50.206;15.978;2022-11-20T06:26:05;62.42;;;44.50;;
68168;SDS011;54981;50.206;15.978;2022-11-20T06:28:32;67.82;;;49.05;;
68168;SDS011;54981;50.206;15.978;2022-11-20T06:30:58;64.75;;;48.20;;
68168;SDS011;54981;50.206;15.978;2022-11-20T06:33:24;73.80;;;54.90;;
68168;SDS011;54981;50.206;15.978;2022-11-20T06:35:50;85.10;;;61.42;;
68168;SDS011;54981;50.206;15.978;2022-11-20T06:38:15;79.85;;;59.53;;
68168;SDS011;54981;50.206;15.978;2022-11-20T06:40:41;71.47;;;54.45;;
68168;SDS011;54981;50.206;15.978;2022-11-20T06:43:07;70.88;;;53.05;;
68168;SDS011;54981;50.206;15.978;2022-11-20T06:45:36;65.28;;;47.13;;
68168;SDS011;54981;50.206;15.978;2022-11-20T06:48:02;65.15;;;49.33;;
68168;SDS011;54981;50.206;15.978;2022-11-20T06:50:28;73.45;;;51.97;;
68168;SDS011;54981;50.206;15.978;2022-11-20T06:52:53;75.03;;;50.05;;
68168;SDS011;54981;50.206;15.978;2022-11-20T06:55:19;72.40;;;50.97;;
68168;SDS011;54981;50.206;15.978;2022-11-20T06:57:44;79.07;;;50.38;;
68168;SDS011;54981;50.206;15.978;2022-11-20T07:00:09;74.53;;;52.58;;
68168;SDS011;54981;50.206;15.978;2022-11-20T07:02:35;72.63;;;51.15;;
68168;SDS011;54981;50.206;15.978;2022-11-20T07:05:01;72.20;;;51.42;;
68168;SDS011;54981;50.206;15.978;2022-11-20T07:07:26;66.15;;;50.65;;
68168;SDS011;54981;50.206;15.978;2022-11-20T07:09:51;53.53;;;40.80;;
68168;SDS011;54981;50.206;15.978;2022-11-20T07:12:17;54.33;;;42.08;;
68168;SDS011;54981;50.206;15.978;2022-11-20T07:14:42;55.97;;;43.95;;
68168;SDS011;54981;50.206;15.978;2022-11-20T07:17:07;59.88;;;41.15;;
68168;SDS011;54981;50.206;15.978;2022-11-20T07:19:33;59.38;;;43.10;;
68168;SDS011;54981;50.206;15.978;2022-11-20T07:21:58;61.72;;;44.75;;
68168;SDS011;54981;50.206;15.978;2022-11-20T07:24:23;92.97;;;69.97;;
68168;SDS011;54981;50.206;15.978;2022-11-20T07:26:49;77.70;;;54.38;;
68168;SDS011;54981;50.206;15.978;2022-11-20T07:29:15;77.53;;;55.83;;
68168;SDS011;54981;50.206;15.978;2022-11-20T07:31:41;69.93;;;50.88;;
68168;SDS011;54981;50.206;15.978;2022-11-20T07:34:07;55.03;;;44.33;;
68168;SDS011;54981;50.206;15.978;2022-11-20T07:36:32;60.92;;;45.45;;
68168;SDS011;54981;50.206;15.978;2022-11-20T07:38:58;58.33;;;44.08;;
68168;SDS011;54981;50.206;15.978;2022-11-20T07:41:23;62.20;;;44.28;;
68168;SDS011;54981;50.206;15.978;2022-11-20T07:43:48;60.63;;;47.00;;
68168;SDS011;54981;50.206;15.978;2022-11-20T07:46:13;56.92;;;43.97;;
68168;SDS011;54981;50.206;15.978;2022-11-20T07:48:39;55.85;;;41.67;;
68168;SDS011;54981;50.206;15.978;2022-11-20T07:51:04;61.17;;;42.72;;
68168;SDS011;54981;50.206;15.978;2022-11-20T07:53:30;57.38;;;41.83;;
68168;SDS011;54981;50.206;15.978;2022-11-20T07:55:58;53.15;;;40.97;;
68168;SDS011;54981;50.206;15.978;2022-11-20T07:58:25;62.67;;;44.85;;
68168;SDS011;54981;50.206;15.978;2022-11-20T08:00:50;56.72;;;41.95;;
68168;SDS011;54981;50.206;15.978;2022-11-20T08:03:15;57.10;;;40.95;;
68168;SDS011;54981;50.206;15.978;2022-11-20T08:05:40;61.00;;;43.97;;
68168;SDS011;54981;50.206;15.978;2022-11-20T08:08:06;59.50;;;43.17;;
68168;SDS011;54981;50.206;15.978;2022-11-20T08:10:32;66.25;;;44.67;;
68168;SDS011;54981;50.206;15.978;2022-11-20T08:12:57;65.20;;;46.50;;
68168;SDS011;54981;50.206;15.978;2022-11-20T08:15:46;86.25;;;63.42;;
68168;SDS011;54981;50.206;15.978;2022-11-20T08:18:15;83.18;;;57.05;;
68168;SDS011;54981;50.206;15.978;2022-11-20T08:20:40;82.68;;;60.83;;
68168;SDS011;54981;50.206;15.978;2022-11-20T08:23:07;70.55;;;51.13;;
68168;SDS011;54981;50.206;15.978;2022-11-20T08:25:33;73.60;;;52.55;;
68168;SDS011;54981;50.206;15.978;2022-11-20T08:28:00;66.68;;;50.13;;
68168;SDS011;54981;50.206;15.978;2022-11-20T08:30:27;69.80;;;53.67;;
68168;SDS011;54981;50.206;15.978;2022-11-20T08:32:53;65.53;;;48.95;;
68168;SDS011;54981;50.206;15.978;2022-11-20T08:35:19;61.33;;;49.85;;
68168;SDS011;54981;50.206;15.978;2022-11-20T08:37:46;63.53;;;48.83;;
68168;SDS011;54981;50.206;15.978;2022-11-20T08:40:12;63.33;;;46.92;;
68168;SDS011;54981;50.206;15.978;2022-11-20T08:42:37;65.22;;;49.28;;
68168;SDS011;54981;50.206;15.978;2022-11-20T08:45:11;63.05;;;45.35;;
68168;SDS011;54981;50.206;15.978;2022-11-20T08:47:36;68.85;;;49.70;;
68168;SDS011;54981;50.206;15.978;2022-11-20T08:50:01;65.50;;;47.97;;
68168;SDS011;54981;50.206;15.978;2022-11-20T08:52:27;70.63;;;53.17;;
68168;SDS011;54981;50.206;15.978;2022-11-20T08:54:53;67.97;;;48.90;;
68168;SDS011;54981;50.206;15.978;2022-11-20T08:57:18;67.55;;;49.60;;
68168;SDS011;54981;50.206;15.978;2022-11-20T08:59:43;69.82;;;48.05;;
68168;SDS011;54981;50.206;15.978;2022-11-20T09:02:09;68.20;;;49.20;;
68168;SDS011;54981;50.206;15.978;2022-11-20T09:04:34;67.10;;;47.38;;
68168;SDS011;54981;50.206;15.978;2022-11-20T09:07:00;70.82;;;50.42;;
68168;SDS011;54981;50.206;15.978;2022-11-20T09:09:25;67.68;;;53.13;;
68168;SDS011;54981;50.206;15.978;2022-11-20T09:11:51;75.00;;;55.85;;
68168;SDS011;54981;50.206;15.978;2022-11-20T09:14:16;74.90;;;55.97;;
68168;SDS011;54981;50.206;15.978;2022-11-20T09:16:41;80.93;;;58.95;;
68168;SDS011;54981;50.206;15.978;2022-11-20T09:19:07;81.18;;;58.95;;
68168;SDS011;54981;50.206;15.978;2022-11-20T09:21:32;78.60;;;57.13;;
68168;SDS011;54981;50.206;15.978;2022-11-20T09:23:57;74.38;;;53.53;;
68168;SDS011;54981;50.206;15.978;2022-11-20T09:26:22;70.97;;;52.20;;
68168;SDS011;54981;50.206;15.978;2022-11-20T09:28:48;74.63;;;51.72;;
68168;SDS011;54981;50.206;15.978;2022-11-20T09:31:21;74.82;;;52.88;;
68168;SDS011;54981;50.206;15.978;2022-11-20T09:33:48;73.07;;;51.60;;
68168;SDS011;54981;50.206;15.978;2022-11-20T09:36:13;67.97;;;48.28;;
68168;SDS011;54981;50.206;15.978;2022-11-20T09:38:39;75.47;;;51.40;;
68168;SDS011;54981;50.206;15.978;2022-11-20T09:41:05;68.70;;;49.60;;
68168;SDS011;54981;50.206;15.978;2022-11-20T09:46:41;70.40;;;49.75;;
68168;SDS011;54981;50.206;15.978;2022-11-20T09:51:59;70.82;;;51.40;;
68168;SDS011;54981;50.206;15.978;2022-11-20T09:54:34;63.35;;;47.17;;
68168;SDS011;54981;50.206;15.978;2022-11-20T09:57:09;66.28;;;48.58;;
68168;SDS011;54981;50.206;15.978;2022-11-20T09:59:51;68.47;;;50.85;;
68168;SDS011;54981;50.206;15.978;2022-11-20T10:10:14;61.53;;;46.65;;
68168;SDS011;54981;50.206;15.978;2022-11-20T10:12:55;63.78;;;49.70;;
68168;SDS011;54981;50.206;15.978;2022-11-20T10:18:20;63.10;;;47.55;;
68168;SDS011;54981;50.206;15.978;2022-11-20T10:28:46;66.30;;;49.88;;
68168;SDS011;54981;50.206;15.978;2022-11-20T10:31:27;64.18;;;49.05;;
68168;SDS011;54981;50.206;15.978;2022-11-20T10:34:00;65.93;;;47.17;;
68168;SDS011;54981;50.206;15.978;2022-11-20T10:36:38;65.15;;;50.33;;
68168;SDS011;54981;50.206;15.978;2022-11-20T10:39:22;63.30;;;46.15;;
68168;SDS011;54981;50.206;15.978;2022-11-20T10:44:22;63.15;;;46.47;;
68168;SDS011;54981;50.206;15.978;2022-11-20T10:47:13;68.90;;;49.00;;
68168;SDS011;54981;50.206;15.978;2022-11-20T10:49:41;71.43;;;51.38;;
68168;SDS011;54981;50.206;15.978;2022-11-20T11:01:14;66.53;;;49.40;;
68168;SDS011;54981;50.206;15.978;2022-11-20T11:03:41;67.68;;;51.10;;
68168;SDS011;54981;50.206;15.978;2022-11-20T11:06:10;65.30;;;49.20;;
68168;SDS011;54981;50.206;15.978;2022-11-20T11:08:47;61.35;;;46.10;;
68168;SDS011;54981;50.206;15.978;2022-11-20T11:11:24;66.78;;;51.38;;
68168;SDS011;54981;50.206;15.978;2022-11-20T11:13:53;63.65;;;49.45;;
68168;SDS011;54981;50.206;15.978;2022-11-20T11:16:29;66.28;;;49.70;;
68168;SDS011;54981;50.206;15.978;2022-11-20T11:19:13;68.35;;;51.00;;
68168;SDS011;54981;50.206;15.978;2022-11-20T11:27:19;69.35;;;50.83;;
68168;SDS011;54981;50.206;15.978;2022-11-20T11:29:39;68.80;;;52.63;;
68168;SDS011;54981;50.206;15.978;2022-11-20T11:32:14;73.72;;;55.08;;
68168;SDS011;54981;50.206;15.978;2022-11-20T11:34:42;74.18;;;56.00;;
68168;SDS011;54981;50.206;15.978;2022-11-20T11:37:18;72.78;;;54.17;;
68168;SDS011;54981;50.206;15.978;2022-11-20T11:39:46;74.50;;;54.80;;
68168;SDS011;54981;50.206;15.978;2022-11-20T11:42:13;73.13;;;54.33;;
68168;SDS011;54981;50.206;15.978;2022-11-20T11:44:44;72.43;;;54.00;;
68168;SDS011;54981;50.206;15.978;2022-11-20T11:47:30;70.88;;;52.65;;
68168;SDS011;54981;50.206;15.978;2022-11-20T11:53:20;75.55;;;55.72;;
68168;SDS011;54981;50.206;15.978;2022-11-20T11:57:59;76.15;;;54.33;;
68168;SDS011;54981;50.206;15.978;2022-11-20T12:00:58;80.43;;;56.95;;
68168;SDS011;54981;50.206;15.978;2022-11-20T12:03:32;76.95;;;57.42;;
68168;SDS011;54981;50.206;15.978;2022-11-20T12:06:01;76.45;;;55.63;;
68168;SDS011;54981;50.206;15.978;2022-11-20T12:11:37;78.60;;;56.05;;
68168;SDS011;54981;50.206;15.978;2022-11-20T12:16:39;79.20;;;55.78;;
68168;SDS011;54981;50.206;15.978;2022-11-20T12:19:12;79.10;;;58.28;;
68168;SDS011;54981;50.206;15.978;2022-11-20T12:30:16;80.35;;;57.30;;
68168;SDS011;54981;50.206;15.978;2022-11-20T12:40:47;79.82;;;58.85;;
68168;SDS011;54981;50.206;15.978;2022-11-20T12:43:52;83.72;;;62.03;;
68168;SDS011;54981;50.206;15.978;2022-11-20T12:47:54;83.53;;;61.83;;
68168;SDS011;54981;50.206;15.978;2022-11-20T13:01:20;109.97;;;82.45;;
68168;SDS011;54981;50.206;15.978;2022-11-20T13:04:09;100.22;;;76.30;;
68168;SDS011;54981;50.206;15.978;2022-11-20T13:06:44;97.82;;;74.82;;
68168;SDS011;54981;50.206;15.978;2022-11-20T13:09:11;88.57;;;63.97;;
68168;SDS011;54981;50.206;15.978;2022-11-20T13:19:35;92.72;;;67.60;;
68168;SDS011;54981;50.206;15.978;2022-11-20T13:22:01;91.47;;;67.22;;
68168;SDS011;54981;50.206;15.978;2022-11-20T13:24:28;94.72;;;69.75;;
68168;SDS011;54981;50.206;15.978;2022-11-20T13:27:01;89.05;;;64.53;;
68168;SDS011;54981;50.206;15.978;2022-11-20T13:29:36;89.25;;;64.68;;
68168;SDS011;54981;50.206;15.978;2022-11-20T13:34:37;87.65;;;63.58;;
68168;SDS011;54981;50.206;15.978;2022-11-20T13:37:02;86.85;;;66.32;;
68168;SDS011;54981;50.206;15.978;2022-11-20T13:39:32;90.63;;;66.05;;
68168;SDS011;54981;50.206;15.978;2022-11-20T13:42:00;85.95;;;62.05;;
68168;SDS011;54981;50.206;15.978;2022-11-20T13:44:29;89.70;;;63.50;;
68168;SDS011;54981;50.206;15.978;2022-11-20T13:47:02;84.78;;;62.95;;
68168;SDS011;54981;50.206;15.978;2022-11-20T13:49:32;90.35;;;63.63;;
68168;SDS011;54981;50.206;15.978;2022-11-20T14:00:32;88.80;;;64.35;;
68168;SDS011;54981;50.206;15.978;2022-11-20T14:02:59;78.28;;;56.60;;
68168;SDS011;54981;50.206;15.978;2022-11-20T14:05:25;84.65;;;59.97;;
68168;SDS011;54981;50.206;15.978;2022-11-20T14:07:51;83.55;;;60.55;;
68168;SDS011;54981;50.206;15.978;2022-11-20T14:10:19;82.50;;;57.15;;
68168;SDS011;54981;50.206;15.978;2022-11-20T14:12:49;82.95;;;59.50;;
68168;SDS011;54981;50.206;15.978;2022-11-20T14:15:34;85.55;;;60.35;;
68168;SDS011;54981;50.206;15.978;2022-11-20T14:18:00;78.43;;;58.05;;
68168;SDS011;54981;50.206;15.978;2022-11-20T14:20:37;83.88;;;58.42;;
68168;SDS011;54981;50.206;15.978;2022-11-20T14:23:03;80.63;;;58.47;;
68168;SDS011;54981;50.206;15.978;2022-11-20T14:25:30;83.53;;;62.45;;
68168;SDS011;54981;50.206;15.978;2022-11-20T14:27:59;79.32;;;58.45;;
68168;SDS011;54981;50.206;15.978;2022-11-20T14:30:30;83.60;;;63.70;;
68168;SDS011;54981;50.206;15.978;2022-11-20T14:33:04;87.18;;;65.72;;
68168;SDS011;54981;50.206;15.978;2022-11-20T14:35:30;86.10;;;63.25;;
68168;SDS011;54981;50.206;15.978;2022-11-20T14:38:00;84.03;;;63.15;;
68168;SDS011;54981;50.206;15.978;2022-11-20T14:40:30;85.80;;;64.15;;
68168;SDS011;54981;50.206;15.978;2022-11-20T14:42:57;96.28;;;67.15;;
68168;SDS011;54981;50.206;15.978;2022-11-20T14:45:24;118.25;;;86.32;;
68168;SDS011;54981;50.206;15.978;2022-11-20T14:47:51;177.00;;;115.18;;
68168;SDS011;54981;50.206;15.978;2022-11-20T14:50:26;178.40;;;120.13;;
68168;SDS011;54981;50.206;15.978;2022-11-20T14:52:54;173.05;;;116.20;;
68168;SDS011;54981;50.206;15.978;2022-11-20T14:55:26;158.93;;;113.35;;
68168;SDS011;54981;50.206;15.978;2022-11-20T14:58:03;146.95;;;100.40;;
68168;SDS011;54981;50.206;15.978;2022-11-20T15:00:31;124.35;;;91.80;;
68168;SDS011;54981;50.206;15.978;2022-11-20T15:02:58;132.43;;;99.07;;
68168;SDS011;54981;50.206;15.978;2022-11-20T15:05:25;117.30;;;83.07;;
68168;SDS011;54981;50.206;15.978;2022-11-20T15:08:09;97.78;;;74.65;;
68168;SDS011;54981;50.206;15.978;2022-11-20T15:10:35;100.47;;;76.20;;
68168;SDS011;54981;50.206;15.978;2022-11-20T15:13:03;120.30;;;92.70;;
68168;SDS011;54981;50.206;15.978;2022-11-20T15:15:40;110.25;;;82.40;;
68168;SDS011;54981;50.206;15.978;2022-11-20T15:18:16;117.93;;;85.88;;
68168;SDS011;54981;50.206;15.978;2022-11-20T15:20:44;114.13;;;85.43;;
68168;SDS011;54981;50.206;15.978;2022-11-20T15:23:11;111.75;;;80.80;;
68168;SDS011;54981;50.206;15.978;2022-11-20T15:25:38;102.82;;;74.25;;
68168;SDS011;54981;50.206;15.978;2022-11-20T15:28:10;94.00;;;69.95;;
68168;SDS011;54981;50.206;15.978;2022-11-20T15:30:42;96.20;;;69.53;;
68168;SDS011;54981;50.206;15.978;2022-11-20T15:33:08;100.30;;;74.63;;
68168;SDS011;54981;50.206;15.978;2022-11-20T15:35:34;101.55;;;72.22;;
68168;SDS011;54981;50.206;15.978;2022-11-20T15:37:59;98.30;;;69.13;;
68168;SDS011;54981;50.206;15.978;2022-11-20T15:40:25;97.13;;;68.25;;
68168;SDS011;54981;50.206;15.978;2022-11-20T15:42:50;98.00;;;71.88;;
68168;SDS011;54981;50.206;15.978;2022-11-20T15:45:28;97.53;;;72.85;;
68168;SDS011;54981;50.206;15.978;2022-11-20T15:48:05;97.60;;;70.15;;
68168;SDS011;54981;50.206;15.978;2022-11-20T15:50:38;92.13;;;68.22;;
68168;SDS011;54981;50.206;15.978;2022-11-20T15:53:09;102.65;;;74.15;;
68168;SDS011;54981;50.206;15.978;2022-11-20T15:55:35;96.88;;;70.35;;
68168;SDS011;54981;50.206;15.978;2022-11-20T15:58:03;98.25;;;73.35;;
68168;SDS011;54981;50.206;15.978;2022-11-20T16:00:28;95.07;;;68.80;;
68168;SDS011;54981;50.206;15.978;2022-11-20T16:02:54;101.07;;;71.88;;
68168;SDS011;54981;50.206;15.978;2022-11-20T16:05:19;101.22;;;68.38;;
68168;SDS011;54981;50.206;15.978;2022-11-20T16:07:44;93.50;;;66.55;;